Canton, IL

8:45 PM CDT on October 19, 2019 (GMT -0500)
Prospect Heights Addition | | Change Station
Active Advisory: Flood Warning

Elev 682 ft 40.57 °N, 90.03 °W | Updated 14 seconds ago

Overcast
Overcast
55.6 °F
Feels Like 55.6 °F
N
2
Wind Variable Wind from WSW
Gusts 2.0 mph

Today
High -- | Low -- °F
--% Chance of Precip.
Yesterday
High -- | Low -- °F
Precip. -- in
Pressure 29.77 in
Visibility 10.0 miles
Clouds Scattered Clouds 6000 ft
Overcast 8000 ft
Dew Point 51 °F
Humidity 85%
Rainfall 0.00 in
Snow Depth Not available.
7:15 AM 6:14 PM
Waning Gibbous, 66% visible
METAR KPIA 200054Z 30004KT 10SM SCT060 OVC080 14/10 A2977 RMK AO2 SLP081 T01440100 $
Pressure 29.77 in
Visibility 10.0 miles
Clouds Scattered Clouds 6000 ft
Overcast 8000 ft
Dew Point 51 °F
Humidity 85%
Rainfall 0.00 in
Snow Depth Not available.
7:15 AM 6:14 PM
Waning Gibbous, 66% visible
METAR KPIA 200054Z 30004KT 10SM SCT060 OVC080 14/10 A2977 RMK AO2 SLP081 T01440100 $

Get Your Daily Forecast Email!

Thanks for signing up!

Be on the lookout for a verification email in your inbox.

You'll start receiving severe weather alerts in your inbox..

×

10-Day Weather Forecast

Almanac

Astronomy

Oct. 19, 2019 Rise Set
Actual Time
Civil Twilight
Nautical Twilight
Astronomical Twilight
Moon
Length of Visible Light
Length of Day
Tomorrow will be .
, % of the Moon is Illuminated

Today's Extremes

State Highs State Lows

Community

WunderPhotos

Category 6

Welcome to Category 6. This is the collective home for Weather Underground's featured writeups by Dr. Jeff Masters (right), Bob Henson (left), Chris Burt, and other regular contributors.

Nearby

Air Quality

  Air Quality AQ Index Pollutant
Not available.

Snow Depth

Station Depth Elevation

Earthquake Activity

City Distance Mag. Time & Date
Minimum magnitude displayed is 2.5.

Coastal Water Temperatures

Place Temperature

Stations

Nearby Weather Stations

Station Location Temp. Windchill Dew Point Humidity Wind Precip. Elev Updated Type
                   

Watches & Warnings

Flood Warning
Issued: 11:16 AM CDT Oct. 19, 2019 – National Weather Service

The Flood Warning continues for
the Illinois River near Havana.
* Until Sunday afternoon.
* At 1045 am Saturday the stage was 14.3 feet.
* Flood stage is 14.0 feet.
* Minor flooding is occurring and minor flooding is forecast.
* Impact... at 14.0 feet... minor flooding begins to agricultural areas
not protected by levees.



                  Fld observed forecast 6 am
location stg stg day time sun Mon Tue

Illinois River
Havana 14 14.3 Sat 11 am 14.0 13.6 13.2



Lat... Lon 4053 8988 4047 8980 4034 9002 4012 9017
      4018 9023 4039 9010